METAR Data
IDs: Format: Raw Decoded Include TAF

Data at: 0503 UTC 20 Sep 2020

METAR for:KDCA (Washington/National, VA, US)
Text:KDCA 200452Z 34005KT 10SM FEW250 12/06 A3038 RMK AO2 SLP288 T01170056 401940094
Temperature: 11.7°C ( 53°F)
Dewpoint: 5.6°C ( 42°F) [RH = 66%]
Pressure (altimeter):30.38 inches Hg (1028.9 mb) [Sea level pressure: 1028.8 mb]
Winds:from the NNW (340 degrees) at 6 MPH (5 knots; 2.6 m/s)
Visibility:10 or more sm (16+ km)
Ceiling:at least 12,000 feet AGL
Clouds: few clouds at 25000 feet AGL

METAR for:KIAD (Washington/Dulles In, VA, US)
Text:KIAD 200452Z 31003KT 10SM CLR 06/04 A3038 RMK AO2 SLP287 T00610039 401890061 $
Temperature: 6.1°C ( 43°F)
Dewpoint: 3.9°C ( 39°F) [RH = 86%]
Pressure (altimeter):30.38 inches Hg (1028.9 mb) [Sea level pressure: 1028.7 mb]
Winds:from the NW (310 degrees) at 3 MPH (3 knots; 1.5 m/s)
Visibility:10 or more sm (16+ km)
Ceiling:at least 12,000 feet AGL
Clouds:sky clear below 12,000 feet AGL
QC Flag:SOME DATA ABOVE MAY BE INACCURATE!!!"$" is an indication the sensor requires maintenance.

METAR for:KBWI (Baltimore-Washington, MD, US)
Text:KBWI 200454Z 29003KT 10SM CLR 07/06 A3037 RMK AO2 SLP284 T00720056 401940072
Temperature: 7.2°C ( 45°F)
Dewpoint: 5.6°C ( 42°F) [RH = 90%]
Pressure (altimeter):30.37 inches Hg (1028.5 mb) [Sea level pressure: 1028.4 mb]
Winds:from the WNW (290 degrees) at 3 MPH (3 knots; 1.5 m/s)
Visibility:10 or more sm (16+ km)
Ceiling:at least 12,000 feet AGL
Clouds:sky clear below 12,000 feet AGL

METAR for:KMTN (Baltimore/Martin Sta, MD, US)
Text:KMTN 200154Z COR 00000KT 10SM SKC 11/07 A3038 RMK LAST
Temperature: 11.0°C ( 52°F)
Dewpoint: 7.0°C ( 45°F) [RH = 76%]
Pressure (altimeter):30.38 inches Hg (1028.9 mb)
Winds:calm
Visibility:10 or more sm (16+ km)
Ceiling:at least 12,000 feet AGL
Clouds:clear skies

METAR for:KCHO (Charlottesville/Albe, VA, US)
Text:KCHO 200453Z 00000KT 10SM CLR 07/06 A3038 RMK AO2 SLP284 T00720061 401830072
Temperature: 7.2°C ( 45°F)
Dewpoint: 6.1°C ( 43°F) [RH = 93%]
Pressure (altimeter):30.38 inches Hg (1028.9 mb) [Sea level pressure: 1028.4 mb]
Winds:calm
Visibility:10 or more sm (16+ km)
Ceiling:at least 12,000 feet AGL
Clouds:sky clear below 12,000 feet AGL

METAR for:KMRB (Martinsburg/E West V, WV, US)
Text:KMRB 200453Z AUTO 00000KT 10SM CLR 03/01 A3038 RMK AO2 SLP290 T00330011 401890033
Temperature: 3.3°C ( 38°F)
Dewpoint: 1.1°C ( 34°F) [RH = 85%]
Pressure (altimeter):30.38 inches Hg (1028.9 mb) [Sea level pressure: 1029.0 mb]
Winds:calm
Visibility:10 or more sm (16+ km)
Ceiling:at least 12,000 feet AGL
Clouds:sky clear below 12,000 feet AGL
QC Flag:automated observation with no human augmentation